createdAt,value
2018-09-06T00:01:13.932Z,22.17
2018-09-06T00:03:45.300Z,21.63
2018-09-06T00:06:18.821Z,21.00
2018-09-06T00:08:49.704Z,21.50
2018-09-06T00:11:24.520Z,21.00
2018-09-06T00:13:55.601Z,21.60
2018-09-06T00:16:27.088Z,23.07
2018-09-06T00:18:57.865Z,20.50
2018-09-06T00:21:29.882Z,21.30
2018-09-06T00:24:00.879Z,21.60
2018-09-06T00:26:32.749Z,21.03
2018-09-06T00:29:05.766Z,20.90
2018-09-06T00:31:37.448Z,21.97
2018-09-06T00:34:08.309Z,20.53
2018-09-06T00:36:39.579Z,21.47
2018-09-06T00:39:10.518Z,21.47
2018-09-06T00:41:41.215Z,21.67
2018-09-06T00:44:11.682Z,22.30
2018-09-06T00:46:42.261Z,22.37
2018-09-06T00:49:12.969Z,22.27
2018-09-06T00:51:44.325Z,22.50
2018-09-06T00:54:16.262Z,25.27
2018-09-06T00:56:46.776Z,25.80
2018-09-06T00:59:17.400Z,25.23
2018-09-06T01:01:47.962Z,24.17
2018-09-06T01:04:18.585Z,25.37
2018-09-06T01:06:48.916Z,26.50
2018-09-06T01:09:20.204Z,25.50
2018-09-06T01:11:50.501Z,26.30
2018-09-06T01:14:21.340Z,26.43
2018-09-06T01:16:52.542Z,27.17
2018-09-06T01:19:23.562Z,27.20
2018-09-06T01:21:54.177Z,28.90
2018-09-06T01:24:26.119Z,25.50
2018-09-06T01:26:56.397Z,25.10
2018-09-06T01:29:26.808Z,25.67
2018-09-06T01:31:59.081Z,24.67
2018-09-06T01:34:30.571Z,27.20
2018-09-06T01:37:01.612Z,23.93
2018-09-06T01:39:33.830Z,22.63
2018-09-06T01:42:06.653Z,23.80
2018-09-06T01:44:36.967Z,22.33
2018-09-06T01:47:10.206Z,24.67
2018-09-06T01:49:40.539Z,23.83
2018-09-06T01:52:11.832Z,22.97
2018-09-06T01:54:44.586Z,24.33
2018-09-06T01:57:14.850Z,23.43
2018-09-06T01:59:45.166Z,22.97
2018-09-06T02:02:17.549Z,24.17
2018-09-06T02:04:47.833Z,24.07
2018-09-06T02:07:18.188Z,23.40
2018-09-06T02:09:48.593Z,23.97
2018-09-06T02:12:18.959Z,25.23
2018-09-06T02:14:49.539Z,25.13
2018-09-06T02:17:20.385Z,24.33
2018-09-06T02:19:51.301Z,24.30
2018-09-06T02:22:21.655Z,26.33
2018-09-06T02:24:52.216Z,26.53
2018-09-06T02:27:22.352Z,26.37
2018-09-06T02:29:53.853Z,30.87
2018-09-06T02:32:24.077Z,30.90
2018-09-06T02:34:54.284Z,30.83
2018-09-06T02:37:24.408Z,32.50
2018-09-06T02:39:54.579Z,34.53
2018-09-06T02:42:24.800Z,31.93
2018-09-06T02:44:55.107Z,32.27
2018-09-06T02:47:26.533Z,34.57
2018-09-06T02:50:03.012Z,33.67
2018-09-06T02:52:35.104Z,36.10
2018-09-06T02:55:06.625Z,36.40
2018-09-06T02:57:36.902Z,36.00
2018-09-06T03:00:07.702Z,35.87
2018-09-06T03:02:38.079Z,37.63
2018-09-06T03:05:08.942Z,37.43
2018-09-06T03:07:39.807Z,39.03
2018-09-06T03:10:11.897Z,37.83
2018-09-06T03:12:43.996Z,39.23
2018-09-06T03:15:15.751Z,38.33
2018-09-06T03:17:47.054Z,40.53
2018-09-06T03:20:19.287Z,39.50
2018-09-06T03:22:52.237Z,39.03
2018-09-06T03:25:28.336Z,38.90
2018-09-06T03:27:59.889Z,36.50
2018-09-06T03:30:32.608Z,39.57
2018-09-06T03:33:06.666Z,38.87
2018-09-06T03:35:40.023Z,42.83
2018-09-06T03:38:10.991Z,38.83
2018-09-06T03:40:45.420Z,38.83
2018-09-06T03:43:17.472Z,40.07
2018-09-06T03:45:48.398Z,42.17
2018-09-06T03:48:21.225Z,46.30
2018-09-06T03:50:54.774Z,41.63
2018-09-06T03:53:30.392Z,41.13
2018-09-06T03:56:02.615Z,42.20
2018-09-06T03:58:39.837Z,41.03
2018-09-06T04:01:11.466Z,38.17
2018-09-06T04:03:43.408Z,40.90
2018-09-06T04:06:15.065Z,38.47
2018-09-06T04:08:47.593Z,39.73
2018-09-06T04:11:20.754Z,39.03
2018-09-06T04:13:51.715Z,40.13
2018-09-06T04:16:22.868Z,39.60
2018-09-06T04:18:54.026Z,40.03
2018-09-06T04:21:27.298Z,39.57
2018-09-06T04:24:01.898Z,38.93
2018-09-06T04:26:34.193Z,38.93
2018-09-06T04:29:05.781Z,38.17
2018-09-06T04:31:40.271Z,39.87
2018-09-06T04:34:12.198Z,39.07
2018-09-06T04:36:42.936Z,40.27
2018-09-06T04:39:15.419Z,40.10
2018-09-06T04:41:46.256Z,39.90
2018-09-06T04:44:19.246Z,38.50
2018-09-06T04:46:53.699Z,37.43
2018-09-06T04:49:24.179Z,38.37
2018-09-06T04:51:54.996Z,36.50
2018-09-06T04:54:26.013Z,38.57
2018-09-06T04:56:58.039Z,38.27
2018-09-06T04:59:32.277Z,36.57
2018-09-06T05:02:06.412Z,38.37
2018-09-06T05:04:39.936Z,37.03
2018-09-06T05:07:10.832Z,38.53
2018-09-06T05:09:43.317Z,36.93
2018-09-06T05:12:16.652Z,37.27
2018-09-06T05:14:47.360Z,37.23
2018-09-06T05:17:20.173Z,36.77
2018-09-06T05:19:57.573Z,34.87
2018-09-06T05:22:29.735Z,37.47
2018-09-06T05:25:01.502Z,38.27
2018-09-06T05:27:33.570Z,37.07
2018-09-06T05:30:06.022Z,36.00
2018-09-06T05:32:37.576Z,34.47
2018-09-06T05:35:10.213Z,36.93
2018-09-06T05:37:43.868Z,36.40
2018-09-06T05:40:19.917Z,36.57
2018-09-06T05:42:51.235Z,35.13
2018-09-06T05:45:24.304Z,28.13
2018-09-06T05:48:01.163Z,32.90
2018-09-06T05:50:33.366Z,33.00
2018-09-06T05:53:09.219Z,34.67
2018-09-06T05:55:39.691Z,31.67
2018-09-06T05:58:11.210Z,29.90
2018-09-06T06:00:44.902Z,35.23
2018-09-06T06:03:16.252Z,32.27
2018-09-06T06:05:48.336Z,33.70
2018-09-06T06:08:28.964Z,29.63
2018-09-06T06:11:02.115Z,35.73
2018-09-06T06:13:32.493Z,34.10
2018-09-06T06:16:04.909Z,33.20
2018-09-06T06:18:37.245Z,31.47
2018-09-06T06:21:08.457Z,30.90
2018-09-06T06:23:39.555Z,33.27
2018-09-06T06:26:10.128Z,37.67
2018-09-06T06:28:41.172Z,37.93
2018-09-06T06:31:11.808Z,35.40
2018-09-06T06:33:43.504Z,35.40
2018-09-06T06:36:14.912Z,37.23
2018-09-06T06:38:45.924Z,34.57
2018-09-06T06:41:16.169Z,35.43
2018-09-06T06:43:48.820Z,35.80
2018-09-06T06:46:19.739Z,33.60
2018-09-06T06:48:52.433Z,35.50
2018-09-06T06:51:24.585Z,34.40
2018-09-06T06:53:55.416Z,35.97
2018-09-06T06:56:26.568Z,33.20
2018-09-06T06:59:00.848Z,33.67
2018-09-06T07:01:31.264Z,34.57
2018-09-06T07:04:02.970Z,35.23
2018-09-06T07:06:34.025Z,38.27
2018-09-06T07:09:07.607Z,37.57
2018-09-06T07:11:39.394Z,37.83
2018-09-06T07:14:11.403Z,38.00
2018-09-06T07:16:42.956Z,40.67
2018-09-06T07:19:16.215Z,39.70
2018-09-06T07:21:47.405Z,37.87
2018-09-06T07:24:17.687Z,38.63
2018-09-06T07:26:48.289Z,42.17
2018-09-06T07:29:20.379Z,40.93
2018-09-06T07:31:51.187Z,40.93
2018-09-06T07:34:22.508Z,44.57
2018-09-06T07:36:57.568Z,40.77
2018-09-06T07:39:30.306Z,44.63
2018-09-06T07:42:02.095Z,44.67
2018-09-06T07:44:32.894Z,44.67
2018-09-06T07:47:04.699Z,44.83
2018-09-06T07:49:36.489Z,44.80
2018-09-06T07:52:11.402Z,45.50
2018-09-06T07:54:43.383Z,41.40
2018-09-06T07:57:16.137Z,43.97
2018-09-06T07:59:47.398Z,46.13
2018-09-06T08:02:20.073Z,43.37
2018-09-06T08:04:52.899Z,44.50
2018-09-06T08:07:24.769Z,42.47
2018-09-06T08:09:56.762Z,46.07
2018-09-06T08:12:29.334Z,43.03
2018-09-06T08:14:59.734Z,43.33
2018-09-06T08:17:30.768Z,42.20
2018-09-06T08:20:02.873Z,43.40
2018-09-06T08:22:36.085Z,42.70
2018-09-06T08:25:15.255Z,41.47
2018-09-06T08:27:46.537Z,41.70
2018-09-06T08:30:17.494Z,40.87
2018-09-06T08:32:53.795Z,41.30
2018-09-06T08:35:28.730Z,41.30
2018-09-06T08:38:01.365Z,40.27
2018-09-06T08:40:35.336Z,40.07
2018-09-06T08:43:09.728Z,39.70
2018-09-06T08:45:42.682Z,41.23
2018-09-06T08:48:15.813Z,40.67
2018-09-06T08:50:47.912Z,36.90
2018-09-06T08:53:23.860Z,39.53
2018-09-06T08:55:56.820Z,39.47
2018-09-06T08:58:28.417Z,37.83
2018-09-06T09:01:05.099Z,37.60
2018-09-06T09:03:42.405Z,37.13
2018-09-06T09:06:18.762Z,38.57
2018-09-06T09:08:50.789Z,39.50
2018-09-06T09:11:23.127Z,39.83
2018-09-06T09:13:55.936Z,39.80
2018-09-06T09:16:28.854Z,38.10
2018-09-06T09:19:03.503Z,39.67
2018-09-06T09:21:37.746Z,41.13
2018-09-06T09:24:11.857Z,41.97
2018-09-06T09:26:52.385Z,40.23
2018-09-06T09:29:26.840Z,41.60
2018-09-06T09:32:00.775Z,41.43
2018-09-06T09:34:37.600Z,42.53
2018-09-06T09:37:09.909Z,40.13
2018-09-06T09:39:43.424Z,37.57
2018-09-06T09:42:17.578Z,54.27
2018-09-06T09:44:53.666Z,37.07
2018-09-06T09:49:57.502Z,35.80
2018-09-06T09:52:33.895Z,35.03
2018-09-06T09:57:58.615Z,36.23
2018-09-06T10:00:36.934Z,34.30
2018-09-06T10:03:14.489Z,34.73
2018-09-06T10:05:53.703Z,33.37
2018-09-06T10:08:34.289Z,33.67
2018-09-06T10:11:07.765Z,34.20
2018-09-06T10:13:40.488Z,33.63
2018-09-06T10:16:28.435Z,34.87
2018-09-06T10:19:01.228Z,32.00
2018-09-06T10:21:37.179Z,35.10
2018-09-06T10:26:52.056Z,32.57
2018-09-06T10:29:29.196Z,32.63
2018-09-06T10:32:06.933Z,32.03
2018-09-06T10:34:39.724Z,33.50
2018-09-06T10:37:12.458Z,37.70
2018-09-06T10:39:45.874Z,39.27
2018-09-06T10:42:18.762Z,38.43
2018-09-06T10:44:56.203Z,39.17
2018-09-06T10:47:30.771Z,40.40
2018-09-06T10:50:05.215Z,41.27
2018-09-06T10:52:43.776Z,38.53
2018-09-06T10:55:19.469Z,39.57
2018-09-06T10:57:59.848Z,38.40
2018-09-06T11:00:43.726Z,35.97
2018-09-06T11:03:17.013Z,36.10
2018-09-06T11:05:53.262Z,37.27
2018-09-06T11:08:28.391Z,40.77
2018-09-06T11:11:05.984Z,39.93
2018-09-06T11:13:39.359Z,39.10
2018-09-06T11:16:12.632Z,39.37
2018-09-06T11:18:47.213Z,41.03
2018-09-06T11:21:19.923Z,38.87
2018-09-06T11:23:58.884Z,37.73
2018-09-06T11:26:33.845Z,38.63
2018-09-06T11:29:18.881Z,37.23
2018-09-06T11:31:53.369Z,38.97
2018-09-06T11:34:28.748Z,38.77
2018-09-06T11:37:09.477Z,38.87
2018-09-06T11:39:48.384Z,38.03
2018-09-06T11:42:22.452Z,37.57
2018-09-06T11:44:57.412Z,37.33
2018-09-06T11:47:32.325Z,31.30
2018-09-06T11:50:18.780Z,34.73
2018-09-06T11:52:52.605Z,36.27
2018-09-06T11:55:25.647Z,34.43
2018-09-06T11:57:59.147Z,36.53
2018-09-06T12:00:31.335Z,34.40
2018-09-06T12:03:17.205Z,34.93
2018-09-06T12:05:49.198Z,35.30
2018-09-06T12:08:22.624Z,32.67
2018-09-06T12:10:58.876Z,33.80
2018-09-06T12:13:33.801Z,31.10
2018-09-06T12:16:12.841Z,24.97
2018-09-06T12:18:49.936Z,23.53
2018-09-06T12:21:22.174Z,22.23
2018-09-06T12:23:57.604Z,20.53
2018-09-06T12:26:33.066Z,20.70
2018-09-06T12:29:08.552Z,20.93
2018-09-06T12:31:43.189Z,21.80
2018-09-06T12:34:18.017Z,21.97
2018-09-06T12:36:55.236Z,23.83
2018-09-06T12:39:35.306Z,25.70
2018-09-06T12:42:11.750Z,25.97
2018-09-06T12:44:52.941Z,26.80
2018-09-06T12:47:27.389Z,32.13
2018-09-06T12:50:11.252Z,30.07
2018-09-06T12:52:48.150Z,31.60
2018-09-06T12:55:32.016Z,30.60
2018-09-06T12:58:22.445Z,33.47
2018-09-06T13:01:12.280Z,37.33
2018-09-06T13:03:49.826Z,31.73
2018-09-06T13:06:25.112Z,30.53
2018-09-06T13:09:05.216Z,30.37
2018-09-06T13:11:40.458Z,29.30
2018-09-06T13:14:17.782Z,31.17
2018-09-06T13:16:51.275Z,31.03
2018-09-06T13:19:25.882Z,32.90
2018-09-06T13:22:06.833Z,34.73
2018-09-06T13:24:39.853Z,33.30
2018-09-06T13:27:17.861Z,30.33
2018-09-06T13:29:58.625Z,33.27
2018-09-06T13:32:33.806Z,35.77
2018-09-06T13:35:19.277Z,35.13
2018-09-06T13:37:52.557Z,30.97
2018-09-06T13:40:31.778Z,29.33
2018-09-06T13:43:06.710Z,27.97
2018-09-06T13:45:44.781Z,32.53
2018-09-06T13:48:20.503Z,33.03
2018-09-06T13:50:57.699Z,29.77
2018-09-06T13:53:33.809Z,29.67
2018-09-06T13:56:12.430Z,29.67
2018-09-06T13:58:48.411Z,27.73
2018-09-06T14:01:23.611Z,30.93
2018-09-06T14:03:59.514Z,27.90
2018-09-06T14:06:35.069Z,27.73
2018-09-06T14:14:22.092Z,26.43
2018-09-06T14:16:56.908Z,25.83
2018-09-06T14:19:47.618Z,28.63
2018-09-06T14:22:20.774Z,27.50
2018-09-06T14:25:27.268Z,27.00
2018-09-06T14:28:07.547Z,27.97
2018-09-06T14:30:49.632Z,27.40
2018-09-06T14:33:27.254Z,30.30
2018-09-06T14:36:05.396Z,28.13
2018-09-06T14:38:40.114Z,30.67
2018-09-06T14:41:23.682Z,29.63
2018-09-06T14:44:03.373Z,29.33
2018-09-06T14:49:05.887Z,28.37
2018-09-06T14:54:26.565Z,29.70
2018-09-06T14:57:04.435Z,28.40
2018-09-06T14:59:43.432Z,25.27
2018-09-06T15:02:44.076Z,26.63
2018-09-06T15:12:00.196Z,22.83
2018-09-06T15:14:31.538Z,26.03
2018-09-06T15:17:06.298Z,26.10
2018-09-06T15:19:39.655Z,24.40
2018-09-06T15:22:15.526Z,26.53
2018-09-06T15:24:51.060Z,25.77
2018-09-06T15:27:25.976Z,23.73
2018-09-06T15:34:19.355Z,22.13
2018-09-06T15:36:52.613Z,26.67
2018-09-06T15:39:24.166Z,25.00
2018-09-06T15:41:56.367Z,26.07
2018-09-06T15:44:28.485Z,25.60
2018-09-06T15:47:03.755Z,24.67
2018-09-06T15:49:36.799Z,25.73
2018-09-06T15:52:12.062Z,24.07
2018-09-06T15:54:49.439Z,23.63
2018-09-06T15:57:29.817Z,24.20
2018-09-06T16:00:08.704Z,24.20
2018-09-06T16:02:46.955Z,25.00
2018-09-06T16:05:27.516Z,25.10
2018-09-06T16:08:00.620Z,25.27
2018-09-06T16:10:33.267Z,24.90
2018-09-06T16:13:10.734Z,25.90
2018-09-06T16:15:47.584Z,25.40
2018-09-06T16:18:24.564Z,25.97
2018-09-06T16:21:06.682Z,24.87
2018-09-06T16:23:46.649Z,24.70
2018-09-06T16:26:25.272Z,24.20
2018-09-06T16:28:58.124Z,26.17
2018-09-06T16:31:36.159Z,24.73
2018-09-06T16:34:14.353Z,25.67
2018-09-06T16:36:54.183Z,25.37
2018-09-06T16:39:30.449Z,27.00
2018-09-06T16:42:08.461Z,25.03
2018-09-06T16:44:53.347Z,24.67
2018-09-06T16:47:29.597Z,26.70
2018-09-06T16:50:21.452Z,25.80
2018-09-06T16:53:09.767Z,27.07
2018-09-06T16:55:53.242Z,24.57
2018-09-06T16:58:31.007Z,27.53
2018-09-06T17:01:13.183Z,23.60
2018-09-06T17:03:49.846Z,22.00
2018-09-06T17:06:24.146Z,20.03
2018-09-06T17:09:04.002Z,18.23
2018-09-06T17:11:41.411Z,19.20
2018-09-06T17:14:16.714Z,17.67
2018-09-06T17:16:55.730Z,18.33
2018-09-06T17:19:33.139Z,19.07
2018-09-06T17:22:07.284Z,18.17
2018-09-06T17:24:44.348Z,17.37
2018-09-06T17:27:23.576Z,16.60
2018-09-06T17:30:04.532Z,17.57
2018-09-06T17:32:39.047Z,16.30
2018-09-06T17:35:22.665Z,17.20
2018-09-06T17:37:59.316Z,14.20
2018-09-06T17:40:36.184Z,14.30
2018-09-06T17:43:12.125Z,13.43
2018-09-06T17:45:48.443Z,12.93
2018-09-06T17:48:22.362Z,13.50
2018-09-06T17:51:06.571Z,12.90
2018-09-06T17:53:45.282Z,13.53
2018-09-06T17:56:21.510Z,12.80
2018-09-06T17:58:57.466Z,13.17
2018-09-06T18:01:47.824Z,11.63
2018-09-06T18:04:30.878Z,13.43
2018-09-06T18:07:16.862Z,12.77
2018-09-06T18:09:52.764Z,12.93
2018-09-06T18:12:31.926Z,13.50
2018-09-06T18:15:19.723Z,14.40
2018-09-06T18:17:56.736Z,14.73
2018-09-06T18:23:14.881Z,14.60
2018-09-06T18:25:56.015Z,13.57
2018-09-06T18:28:47.183Z,14.53
2018-09-06T18:31:27.669Z,16.13
2018-09-06T18:34:06.260Z,14.33
2018-09-06T18:36:46.779Z,15.90
2018-09-06T18:39:26.447Z,16.47
2018-09-06T18:42:07.237Z,17.20
2018-09-06T18:47:33.749Z,17.97
2018-09-06T18:50:13.743Z,19.00
2018-09-06T18:52:50.462Z,18.77
2018-09-06T18:55:26.005Z,17.97
2018-09-06T18:58:05.428Z,19.37
2018-09-06T19:04:01.101Z,20.40
2018-09-06T19:06:37.340Z,22.53
2018-09-06T19:09:21.108Z,20.27
2018-09-06T19:11:54.483Z,20.53
2018-09-06T19:14:31.971Z,20.33
2018-09-06T19:17:10.492Z,19.33
2018-09-06T19:19:49.768Z,20.40
2018-09-06T19:22:25.026Z,20.60
2018-09-06T19:24:59.061Z,20.93
2018-09-06T19:27:32.081Z,19.77
2018-09-06T19:30:11.336Z,20.60
2018-09-06T19:32:45.865Z,20.30
2018-09-06T19:35:26.574Z,19.70
2018-09-06T19:37:59.610Z,20.23
2018-09-06T19:43:38.509Z,21.30
2018-09-06T19:46:16.903Z,20.50
2018-09-06T19:48:50.502Z,21.63
2018-09-06T19:51:29.585Z,21.10
2018-09-06T19:54:09.313Z,21.80
2018-09-06T19:56:48.672Z,22.00
2018-09-06T19:59:25.270Z,20.57
2018-09-06T20:02:05.463Z,20.10
2018-09-06T20:04:41.399Z,21.33
2018-09-06T20:07:22.899Z,21.07
2018-09-06T20:09:57.593Z,21.73
2018-09-06T20:12:34.909Z,21.43
2018-09-06T20:15:14.794Z,22.10
2018-09-06T20:17:56.586Z,21.17
2018-09-06T20:20:31.214Z,24.80
2018-09-06T20:23:08.106Z,22.90
2018-09-06T20:25:42.881Z,23.67
2018-09-06T20:28:18.027Z,22.03
2018-09-06T20:30:54.375Z,22.73
2018-09-06T20:33:34.592Z,21.37
2018-09-06T20:36:08.623Z,21.73
2018-09-06T20:38:47.394Z,22.83
2018-09-06T20:41:22.415Z,20.97
2018-09-06T20:43:59.916Z,19.97
2018-09-06T20:46:32.752Z,21.30
2018-09-06T20:49:12.735Z,21.83
2018-09-06T20:51:51.246Z,22.03
2018-09-06T20:54:30.159Z,21.23
2018-09-06T20:57:07.330Z,19.13
2018-09-06T20:59:42.821Z,17.33
2018-09-06T21:02:25.780Z,17.93
2018-09-06T21:05:00.907Z,17.13
2018-09-06T21:07:34.027Z,15.47
2018-09-06T21:10:10.586Z,17.07
2018-09-06T21:12:47.615Z,16.37
2018-09-06T21:15:22.792Z,16.30
2018-09-06T21:18:01.024Z,16.63
2018-09-06T21:20:36.129Z,15.40
2018-09-06T21:23:10.500Z,16.10
2018-09-06T21:25:52.629Z,16.70
2018-09-06T21:28:27.497Z,15.77
2018-09-06T21:31:05.436Z,16.27
2018-09-06T21:33:40.993Z,15.90
2018-09-06T21:36:16.991Z,16.13
2018-09-06T21:38:52.079Z,15.73
2018-09-06T21:41:24.935Z,15.43
2018-09-06T21:43:58.811Z,15.63
2018-09-06T21:46:34.007Z,17.03
2018-09-06T21:49:08.828Z,15.87
2018-09-06T21:51:43.285Z,16.50
2018-09-06T21:54:15.730Z,15.73
2018-09-06T21:56:51.394Z,16.10
2018-09-06T21:59:30.799Z,15.73
2018-09-06T22:02:07.835Z,14.30
2018-09-06T22:04:43.918Z,14.97
2018-09-06T22:07:18.496Z,14.50
2018-09-06T22:09:53.869Z,15.13
2018-09-06T22:12:37.295Z,14.33
2018-09-06T22:15:17.619Z,13.37
2018-09-06T22:17:58.572Z,15.47
2018-09-06T22:20:34.542Z,13.67
2018-09-06T22:23:11.143Z,13.67
2018-09-06T22:25:45.657Z,14.07
2018-09-06T22:28:22.131Z,14.40
2018-09-06T22:30:59.664Z,14.27
2018-09-06T22:33:33.543Z,14.50
2018-09-06T22:36:11.761Z,13.67
2018-09-06T22:38:45.028Z,14.80
2018-09-06T22:41:18.069Z,14.97
2018-09-06T22:43:52.178Z,14.37
2018-09-06T22:46:27.535Z,15.37
2018-09-06T22:49:00.577Z,14.13
2018-09-06T22:51:40.212Z,15.00
2018-09-06T22:54:11.638Z,15.03
2018-09-06T22:56:44.857Z,15.57
2018-09-06T22:59:16.957Z,15.17
2018-09-06T23:01:52.371Z,15.27
2018-09-06T23:04:30.103Z,14.83
2018-09-06T23:07:02.470Z,15.43
2018-09-06T23:09:33.695Z,15.47
2018-09-06T23:12:08.099Z,16.10
2018-09-06T23:14:48.017Z,16.07
2018-09-06T23:17:21.179Z,15.20
2018-09-06T23:19:55.210Z,16.30
2018-09-06T23:22:29.635Z,15.77
2018-09-06T23:25:01.616Z,16.93
2018-09-06T23:27:35.005Z,16.20
2018-09-06T23:30:08.151Z,15.00
2018-09-06T23:32:42.007Z,15.03
2018-09-06T23:35:15.176Z,15.23
2018-09-06T23:37:46.722Z,15.53
2018-09-06T23:40:19.732Z,16.57
2018-09-06T23:42:51.731Z,15.13
2018-09-06T23:45:25.040Z,17.60
2018-09-06T23:47:59.050Z,16.80
2018-09-06T23:50:31.144Z,17.63
2018-09-06T23:53:01.592Z,15.87
2018-09-06T23:55:34.781Z,16.30
2018-09-06T23:58:07.681Z,16.67
